Time;durP1;ratioP1;P1;durP2;ratioP2;P2;SDS_P1;SDS_P2;PMS_P1;PMS_P2;Temp;Humidity;BMP_temperature;BMP_pressure;BME280_temperature;BME280_humidity;BME280_pressure;Samples;Min_cycle;Max_cycle;Signal;HPM_P1;HPM_P2
2022/05/26 00:00:34;;;;;;;8.80;1.87;;;;;;;18.67;69.27;101647.63;5052238;28;20883;-88
2022/05/26 00:03:03;;;;;;;11.07;2.00;;;;;;;18.54;69.44;101624.47;5052074;28;20496;-88
2022/05/26 00:05:31;;;;;;;7.27;1.87;;;;;;;18.47;69.50;101620.91;5067829;28;20947;-88
2022/05/26 00:08:01;;;;;;;12.70;2.20;;;;;;;18.49;69.82;101628.97;5052964;28;20438;-88
2022/05/26 00:10:34;;;;;;;22.83;2.20;;;;;;;18.41;69.78;101612.66;5051907;28;20574;-88
2022/05/26 00:13:02;;;;;;;13.03;2.40;;;;;;;18.48;69.62;101630.06;5073178;28;20510;-88
2022/05/26 00:15:35;;;;;;;8.90;2.03;;;;;;;18.42;69.98;101617.97;5016401;28;20435;-88
2022/05/26 00:18:12;;;;;;;8.77;1.83;;;;;;;18.35;69.99;101622.69;5022377;28;20443;-88
2022/05/26 00:20:40;;;;;;;9.80;2.23;;;;;;;18.36;70.24;101641.00;5083834;28;20446;-87
2022/05/26 00:23:11;;;;;;;12.63;2.27;;;;;;;18.28;70.33;101621.88;5015912;28;20439;-89
2022/05/26 00:26:03;;;;;;;9.83;2.27;;;;;;;18.19;70.04;101617.72;5031951;28;20455;-87
2022/05/26 00:28:31;;;;;;;14.10;1.63;;;;;;;18.23;70.54;101641.09;5031934;28;20436;-88
2022/05/26 00:31:24;;;;;;;17.67;2.10;;;;;;;18.16;71.04;101634.75;5048452;28;20993;-88
2022/05/26 00:33:59;;;;;;;14.90;2.10;;;;;;;17.95;71.06;101608.28;5032030;28;20447;-89
2022/05/26 00:36:41;;;;;;;14.37;2.80;;;;;;;18.02;71.56;101627.59;5048141;28;20818;-88
2022/05/26 00:39:19;;;;;;;13.07;2.20;;;;;;;17.95;71.91;101616.56;5049620;28;20466;-88
2022/05/26 00:41:59;;;;;;;16.93;2.10;;;;;;;17.85;72.16;101617.06;5031616;28;20447;-88
2022/05/26 00:44:29;;;;;;;15.47;2.20;;;;;;;17.74;72.65;101609.44;5031453;28;20443;-88
2022/05/26 00:47:11;;;;;;;8.20;1.77;;;;;;;17.69;72.54;101606.50;5015689;28;20439;-89
2022/05/26 00:50:00;;;;;;;12.93;2.17;;;;;;;17.67;72.66;101613.31;5031456;28;20471;-87
2022/05/26 00:52:42;;;;;;;8.33;1.90;;;;;;;17.54;72.43;101594.81;5040770;28;20445;-88
2022/05/26 00:55:20;;;;;;;7.53;1.67;;;;;;;17.60;72.87;101619.69;5042546;28;20443;-88
2022/05/26 00:58:14;;;;;;;11.83;2.43;;;;;;;17.47;72.69;101599.53;5079708;28;20481;-88
2022/05/26 01:00:43;;;;;;;9.90;1.90;;;;;;;17.53;73.22;101613.31;5050102;28;20442;-88
2022/05/26 01:03:37;;;;;;;12.13;2.20;;;;;;;17.41;73.32;101598.50;5019474;28;20447;-88
2022/05/26 01:06:15;;;;;;;12.70;2.30;;;;;;;17.30;73.73;101584.50;5035494;28;20430;-89
2022/05/26 01:08:57;;;;;;;7.70;1.67;;;;;;;17.18;73.52;101576.88;5034409;28;20458;-88
2022/05/26 01:11:31;;;;;;;6.23;1.27;;;;;;;17.10;73.51;101574.38;5016582;28;20483;-88
2022/05/26 01:14:11;;;;;;;6.97;1.80;;;;;;;17.18;73.62;101592.59;5047986;28;20443;-88
2022/05/26 01:17:04;;;;;;;4.63;1.53;;;;;;;17.10;73.58;101590.94;5049399;28;20472;-88
2022/05/26 01:19:52;;;;;;;6.53;1.30;;;;;;;17.02;73.26;101593.06;5050871;28;20442;-88
2022/05/26 01:22:54;;;;;;;6.60;1.87;;;;;;;16.98;73.32;101591.81;5052142;28;20816;-87
2022/05/26 01:25:28;;;;;;;4.37;1.93;;;;;;;16.93;73.60;101579.47;5047200;28;20513;-88
2022/05/26 01:28:14;;;;;;;6.87;1.97;;;;;;;16.84;73.59;101580.78;5031310;28;20531;-88
2022/05/26 01:30:52;;;;;;;12.53;1.80;;;;;;;16.81;73.53;101569.31;5047168;28;20510;-87
2022/05/26 01:33:52;;;;;;;18.57;2.07;;;;;;;16.78;73.89;101580.78;5073414;28;20541;-87
2022/05/26 01:36:33;;;;;;;9.50;1.97;;;;;;;16.67;74.46;101575.94;5085578;28;20783;-88
2022/05/26 01:39:10;;;;;;;6.93;1.80;;;;;;;16.64;74.54;101577.19;5054970;28;21174;-88
2022/05/26 01:42:18;;;;;;;15.50;2.20;;;;;;;16.46;74.34;101555.72;5054064;28;20468;-88
2022/05/26 01:45:03;;;;;;;7.53;1.47;;;;;;;16.41;74.35;101552.75;5041350;28;20445;-88
2022/05/26 01:47:37;;;;;;;7.60;1.20;;;;;;;16.40;74.51;101564.84;5023547;28;20492;-87
2022/05/26 01:50:25;;;;;;;10.37;1.40;;;;;;;16.31;74.56;101560.63;5053166;28;20478;-88
2022/05/26 01:53:29;;;;;;;3.53;1.57;;;;;;;16.16;74.68;101548.94;5049617;28;20439;-88
2022/05/26 01:56:38;;;;;;;8.43;1.80;;;;;;;16.10;74.61;101549.78;5051292;28;20446;-87
2022/05/26 01:59:09;;;;;;;8.10;2.10;;;;;;;16.12;74.80;101553.19;5082813;28;20971;-88
2022/05/26 02:02:00;;;;;;;7.33;1.83;;;;;;;15.97;74.93;101536.81;5035063;28;20458;-88
2022/05/26 02:05:03;;;;;;;3.77;1.50;;;;;;;15.89;75.06;101532.34;5035869;28;20805;-88
2022/05/26 02:07:35;;;;;;;9.40;1.90;;;;;;;15.89;74.78;101539.78;5049961;28;20457;-88
2022/05/26 02:10:06;;;;;;;4.87;1.50;;;;;;;15.88;75.17;101541.69;5042413;28;20478;-87
2022/05/26 02:12:42;;;;;;;6.33;1.40;;;;;;;15.87;75.53;101548.25;5037888;28;20447;-88
2022/05/26 02:15:13;;;;;;;7.73;1.70;;;;;;;15.88;75.16;101543.59;5038038;28;20526;-88
2022/05/26 02:17:53;;;;;;;7.13;1.50;;;;;;;15.81;75.09;101549.09;5035730;28;20844;-87
2022/05/26 02:20:24;;;;;;;8.93;1.47;;;;;;;15.78;74.95;101541.22;5034951;28;20447;-88
2022/05/26 02:23:12;;;;;;;8.77;2.57;;;;;;;15.73;75.06;101554.81;5054207;28;20975;-87
2022/05/26 02:25:45;;;;;;;12.13;2.47;;;;;;;15.65;74.83;101549.47;5055784;28;20445;-87
2022/05/26 02:28:14;;;;;;;9.17;1.80;;;;;;;15.47;75.41;101524.38;5054630;28;20438;-88
2022/05/26 02:30:42;;;;;;;9.60;1.63;;;;;;;15.51;75.38;101542.19;5070622;28;20482;-88
2022/05/26 02:33:14;;;;;;;6.00;1.43;;;;;;;15.42;75.65;101541.50;5038439;28;20449;-88
2022/05/26 02:35:44;;;;;;;6.50;1.20;;;;;;;15.35;75.18;101534.28;5037437;28;20513;-87
2022/05/26 02:38:22;;;;;;;6.33;1.80;;;;;;;15.33;75.35;101553.78;5015346;28;20529;-88
2022/05/26 02:40:53;;;;;;;4.77;1.70;;;;;;;15.09;74.74;101524.84;5050893;28;20436;-88
2022/05/26 02:43:26;;;;;;;4.83;1.13;;;;;;;15.12;75.21;101535.47;5051124;28;20523;-88
2022/05/26 02:46:32;;;;;;;3.50;1.40;;;;;;;15.13;75.28;101541.81;5037606;28;20473;-88
2022/05/26 02:49:25;;;;;;;11.83;1.47;;;;;;;14.86;75.19;101525.16;5037767;28;20949;-88
2022/05/26 02:52:11;;;;;;;3.43;1.23;;;;;;;14.93;75.76;101536.22;5038420;28;20521;-88
2022/05/26 02:55:07;;;;;;;4.40;1.30;;;;;;;14.80;76.44;101544.41;5047588;28;20438;-88
2022/05/26 02:57:37;;;;;;;8.00;1.27;;;;;;;14.73;76.20;101549.00;5034590;28;20435;-87
2022/05/26 03:00:43;;;;;;;5.20;1.43;;;;;;;14.63;76.85;101545.72;5073624;28;20439;-89
2022/05/26 03:03:13;;;;;;;2.50;1.23;;;;;;;14.69;77.04;101544.94;5052934;28;20465;-88
2022/05/26 03:06:17;;;;;;;3.37;1.03;;;;;;;14.69;77.44;101548.53;5052506;28;20427;-88
2022/05/26 03:08:48;;;;;;;5.27;1.53;;;;;;;14.65;77.22;101544.47;5040479;28;20489;-88
2022/05/26 03:11:26;;;;;;;4.77;1.23;;;;;;;14.63;77.26;101537.47;5081166;28;20488;-89
2022/05/26 03:13:55;;;;;;;5.13;1.53;;;;;;;14.65;77.42;101530.72;5053285;28;20816;-88
2022/05/26 03:16:24;;;;;;;5.43;1.30;;;;;;;14.63;76.97;101530.06;5031545;28;20485;-88
2022/05/26 03:18:53;;;;;;;6.70;1.30;;;;;;;14.70;76.44;101552.16;5035384;28;20525;-87
2022/05/26 03:21:24;;;;;;;2.27;1.00;;;;;;;14.62;76.53;101549.56;5052523;28;20909;-88
2022/05/26 03:23:53;;;;;;;3.43;1.60;;;;;;;14.55;76.51;101543.16;5036536;28;20476;-88
2022/05/26 03:26:21;;;;;;;4.73;0.90;;;;;;;14.38;76.78;101524.16;5036941;28;20434;-87
2022/05/26 03:28:59;;;;;;;4.57;1.60;;;;;;;14.41;76.65;101542.22;5017652;28;20452;-89
2022/05/26 03:31:38;;;;;;;3.90;1.03;;;;;;;14.27;76.95;101541.19;5037657;28;20521;-89
2022/05/26 03:42:45;;;;;;;3.57;1.10;;;;;;;14.32;77.20;101551.59;5053939;28;20508;-88
2022/05/26 03:45:18;;;;;;;4.20;1.67;;;;;;;14.24;76.93;101549.84;5053018;28;20496;-87
2022/05/26 03:47:46;;;;;;;7.93;1.57;;;;;;;14.22;76.59;101546.47;5036074;28;20450;-87
2022/05/26 03:50:14;;;;;;;1.57;1.00;;;;;;;14.11;76.87;101552.47;5019752;28;20864;-87
2022/05/26 03:52:44;;;;;;;5.53;1.47;;;;;;;14.09;77.12;101549.06;5051924;28;20795;-87
2022/05/26 03:55:13;;;;;;;4.40;1.93;;;;;;;13.96;77.14;101544.31;5084759;28;20447;-87
2022/05/26 03:57:43;;;;;;;6.00;1.67;;;;;;;14.07;77.69;101553.91;5021629;28;20447;-87
2022/05/26 04:00:12;;;;;;;6.70;1.57;;;;;;;14.07;77.79;101553.91;5064803;28;20455;-88
2022/05/26 04:02:41;;;;;;;6.00;1.40;;;;;;;14.04;78.10;101555.19;5016758;28;20471;-87
2022/05/26 04:05:10;;;;;;;5.47;1.80;;;;;;;14.07;77.71;101556.66;5032402;28;20451;-87
2022/05/26 04:07:40;;;;;;;7.13;1.47;;;;;;;14.08;77.60;101558.38;5035676;28;20455;-87
2022/05/26 04:10:09;;;;;;;4.67;1.20;;;;;;;13.98;77.25;101553.22;5032648;28;20478;-87
2022/05/26 04:12:37;;;;;;;4.10;1.30;;;;;;;13.97;77.60;101550.66;5048895;28;20447;-87
2022/05/26 04:15:06;;;;;;;4.07;1.27;;;;;;;13.96;77.66;101554.44;5032343;28;20431;-87
2022/05/26 04:17:38;;;;;;;2.07;1.13;;;;;;;13.95;78.07;101555.50;5020429;28;20458;-88
2022/05/26 04:20:16;;;;;;;2.43;1.10;;;;;;;13.96;77.89;101559.94;5048057;28;20546;-88
2022/05/26 04:22:45;;;;;;;2.77;1.47;;;;;;;13.97;78.06;101565.25;5040110;28;20442;-88
2022/05/26 04:25:13;;;;;;;4.50;1.13;;;;;;;13.84;78.43;101551.38;5068166;28;20458;-88
2022/05/26 04:27:43;;;;;;;7.50;1.17;;;;;;;13.75;76.94;101541.56;5041306;28;20540;-87
2022/05/26 04:30:14;;;;;;;1.83;1.10;;;;;;;13.81;76.89;101560.88;5015702;28;20451;-88
2022/05/26 04:32:44;;;;;;;2.93;1.00;;;;;;;13.77;77.47;101566.94;5047919;28;20443;-88
2022/05/26 04:35:13;;;;;;;3.03;1.27;;;;;;;13.74;77.81;101554.44;5033417;28;20956;-88
2022/05/26 04:37:41;;;;;;;9.10;1.43;;;;;;;13.77;78.37;101564.19;5044259;28;20467;-90
2022/05/26 04:40:10;;;;;;;7.63;1.63;;;;;;;13.79;76.75;101584.94;5048265;28;20484;-89
2022/05/26 04:42:43;;;;;;;4.50;1.73;;;;;;;13.66;76.61;101571.03;5047955;28;20911;-88
2022/05/26 04:45:14;;;;;;;4.80;1.67;;;;;;;13.64;77.19;101570.41;5047804;28;20450;-88
2022/05/26 04:47:42;;;;;;;3.83;1.30;;;;;;;13.56;77.03;101569.66;5046415;28;20446;-87
2022/05/26 04:50:43;;;;;;;3.07;1.13;;;;;;;13.66;77.28;101586.69;5048494;28;20933;-87
2022/05/26 04:53:13;;;;;;;4.90;1.30;;;;;;;13.52;77.19;101591.16;5049070;28;20470;-88
2022/05/26 04:55:41;;;;;;;3.57;1.30;;;;;;;13.43;77.22;101584.94;5032632;28;20444;-87
2022/05/26 04:58:09;;;;;;;6.47;1.30;;;;;;;13.41;77.86;101588.91;5031515;28;20467;-88
2022/05/26 05:00:37;;;;;;;4.50;1.30;;;;;;;13.45;78.60;101599.31;5016101;28;20432;-88
2022/05/26 05:03:10;;;;;;;9.70;1.47;;;;;;;13.42;77.24;101599.72;5036015;28;20449;-89
2022/05/26 05:05:47;;;;;;;4.23;1.10;;;;;;;13.27;77.60;101593.38;5052523;28;20446;-88
2022/05/26 05:08:16;;;;;;;2.70;1.03;;;;;;;13.29;77.29;101610.50;5086831;28;20503;-88
2022/05/26 05:10:44;;;;;;;4.30;1.47;;;;;;;13.40;77.74;101625.66;5033253;28;20840;-88
2022/05/26 05:13:11;;;;;;;2.20;1.03;;;;;;;13.38;77.55;101622.25;5052212;28;20439;-87
2022/05/26 05:15:50;;;;;;;9.10;2.17;;;;;;;13.38;77.35;101623.09;5052055;28;20448;-88
2022/05/26 05:18:23;;;;;;;4.23;1.20;;;;;;;13.35;77.38;101628.09;5063968;28;20445;-87
2022/05/26 05:20:52;;;;;;;3.63;1.13;;;;;;;13.20;77.13;101608.06;5055442;28;20446;-87
2022/05/26 05:23:22;;;;;;;4.40;1.00;;;;;;;13.24;77.58;101631.34;5054570;28;20866;-87
2022/05/26 05:25:51;;;;;;;3.20;1.30;;;;;;;13.31;77.89;101635.00;5039507;28;20435;-87
2022/05/26 05:28:24;;;;;;;4.93;1.03;;;;;;;13.25;77.50;101630.31;5021380;28;20456;-87
2022/05/26 05:30:54;;;;;;;5.60;1.20;;;;;;;13.29;77.52;101631.59;5068073;28;20570;-87
2022/05/26 05:33:46;;;;;;;5.83;1.77;;;;;;;13.42;77.96;101640.03;5051838;28;20458;-87
2022/05/26 05:36:25;;;;;;;8.27;1.60;;;;;;;13.39;78.27;101640.41;5018953;28;20451;-87
2022/05/26 05:38:56;;;;;;;3.67;1.20;;;;;;;13.43;78.23;101642.59;5035142;28;20838;-88
2022/05/26 05:41:25;;;;;;;3.83;1.50;;;;;;;13.43;78.47;101636.25;5039411;28;20469;-88
2022/05/26 05:43:57;;;;;;;4.33;1.13;;;;;;;13.36;78.49;101636.16;5056306;28;20527;-89
2022/05/26 05:46:25;;;;;;;5.20;1.60;;;;;;;13.41;78.78;101643.84;5054998;28;20442;-88
2022/05/26 05:48:53;;;;;;;13.97;2.50;;;;;;;13.51;78.72;101660.84;5054979;28;20477;-88
2022/05/26 05:51:20;;;;;;;11.33;1.50;;;;;;;13.48;78.91;101655.72;5040755;28;20483;-88
2022/05/26 05:53:50;;;;;;;8.87;1.77;;;;;;;13.53;79.37;101661.50;5034512;28;20458;-87
2022/05/26 05:56:20;;;;;;;7.37;1.63;;;;;;;13.63;79.39;101663.97;5023238;28;20451;-88
2022/05/26 05:58:55;;;;;;;13.50;1.50;;;;;;;13.68;78.93;101673.34;5054621;28;20447;-87
2022/05/26 06:01:26;;;;;;;7.20;1.47;;;;;;;13.72;79.49;101677.41;5054862;28;20445;-87
2022/05/26 06:03:54;;;;;;;6.17;1.80;;;;;;;13.67;78.77;101655.16;5044688;28;20542;-87
2022/05/26 06:06:22;;;;;;;3.70;1.33;;;;;;;13.78;78.99;101662.91;5054737;28;20940;-87
2022/05/26 06:08:51;;;;;;;5.50;1.70;;;;;;;13.91;79.45;101666.84;5054296;28;20445;-87
2022/05/26 06:11:35;;;;;;;7.73;1.63;;;;;;;14.09;79.35;101670.03;5054388;28;20482;-88
2022/05/26 06:14:03;;;;;;;8.47;1.50;;;;;;;14.26;79.14;101670.63;5036619;28;20435;-87
2022/05/26 06:16:33;;;;;;;3.97;1.80;;;;;;;14.35;78.65;101648.31;5067404;28;20993;-88
2022/05/26 06:19:01;;;;;;;8.73;1.90;;;;;;;14.70;78.23;101667.72;5050100;28;20938;-88
2022/05/26 06:21:29;;;;;;;4.00;1.80;;;;;;;14.91;77.80;101659.44;5052305;28;20473;-87
2022/05/26 06:24:00;;;;;;;14.00;1.17;;;;;;;15.15;77.07;101661.72;5037697;28;20440;-86
2022/05/26 06:26:31;;;;;;;6.90;2.07;;;;;;;15.39;75.84;101665.06;5038788;28;20497;-87
2022/05/26 06:37:55;;;;;;;6.57;1.77;;;;;;;16.17;74.20;101649.91;5055145;28;20481;-86
2022/05/26 06:40:24;;;;;;;7.77;2.33;;;;;;;16.35;74.00;101649.34;5020871;28;20446;-86
2022/05/26 06:42:53;;;;;;;11.00;4.67;;;;;;;16.56;73.47;101655.50;5053360;28;20966;-87
2022/05/26 06:45:20;;;;;;;12.60;2.90;;;;;;;16.73;73.13;101661.50;5054001;28;20440;-87
2022/05/26 06:47:49;;;;;;;8.10;4.13;;;;;;;16.89;73.26;101665.75;5018813;28;21010;-86
2022/05/26 06:50:17;;;;;;;5.73;2.00;;;;;;;17.01;73.11;101658.50;5053122;28;20545;-86
2022/05/26 06:52:46;;;;;;;7.97;3.00;;;;;;;17.23;72.99;101657.22;5036983;28;21029;-87
2022/05/26 06:55:15;;;;;;;12.53;2.97;;;;;;;17.43;72.82;101664.59;5052719;28;20446;-88
2022/05/26 06:57:43;;;;;;;5.87;2.13;;;;;;;17.65;72.91;101665.22;5086996;28;20526;-87
2022/05/26 07:00:12;;;;;;;6.67;3.20;;;;;;;17.81;73.14;101671.09;5053290;28;20792;-87
2022/05/26 07:02:40;;;;;;;11.60;2.97;;;;;;;17.88;73.05;101655.34;5053119;28;20805;-88
2022/05/26 07:05:10;;;;;;;5.13;1.63;;;;;;;18.08;72.92;101676.53;5067563;28;20466;-87
2022/05/26 07:07:39;;;;;;;6.10;2.10;;;;;;;18.15;72.97;101661.56;5043298;28;20535;-87
2022/05/26 07:10:12;;;;;;;8.87;2.93;;;;;;;18.27;72.75;101658.97;5055844;28;20489;-85
2022/05/26 07:12:42;;;;;;;14.93;3.00;;;;;;;18.41;73.01;101659.72;5037068;28;20500;-87
2022/05/26 07:15:11;;;;;;;14.70;3.40;;;;;;;18.55;73.69;101667.69;5035109;28;20442;-87
2022/05/26 07:17:44;;;;;;;19.80;3.77;;;;;;;18.67;73.94;101669.78;5038472;28;20809;-86
2022/05/26 07:20:13;;;;;;;7.67;2.43;;;;;;;18.82;74.79;101670.31;5041334;28;20446;-88
2022/05/26 07:22:42;;;;;;;18.33;3.37;;;;;;;18.94;74.81;101676.81;5085274;28;20937;-87
2022/05/26 07:25:10;;;;;;;16.33;2.37;;;;;;;19.01;75.33;101680.38;5068336;28;20530;-87
2022/05/26 07:27:42;;;;;;;19.03;3.73;;;;;;;19.17;75.31;101665.94;5049849;28;20470;-91
2022/05/26 07:30:11;;;;;;;16.77;2.87;;;;;;;19.30;73.96;101674.09;5052078;28;20435;-87
2022/05/26 07:32:40;;;;;;;4.47;2.20;;;;;;;19.37;74.42;101675.97;5020122;28;20573;-92
2022/05/26 07:35:09;;;;;;;6.97;2.50;;;;;;;19.47;73.33;101681.81;5007341;28;20999;-88
2022/05/26 07:43:34;;;;;;;11.70;2.30;;;;;;;19.69;70.02;101672.00;5047063;28;20582;-89
2022/05/26 07:46:02;;;;;;;8.17;2.20;;;;;;;19.79;68.98;101677.03;5033229;28;20914;-89
2022/05/26 07:48:31;;;;;;;6.43;2.50;;;;;;;19.95;68.70;101691.13;5049355;28;20498;-89
2022/05/26 07:50:59;;;;;;;9.90;1.90;;;;;;;20.01;67.57;101675.47;5032582;28;20451;-89
2022/05/26 07:53:30;;;;;;;9.53;2.20;;;;;;;20.19;66.26;101688.47;5032944;28;20938;-88
2022/05/26 07:55:57;;;;;;;8.17;2.20;;;;;;;20.20;65.45;101676.28;5049729;28;20447;-89
2022/05/26 07:58:25;;;;;;;17.03;2.07;;;;;;;20.33;64.88;101693.59;5032895;28;20546;-88
2022/05/26 08:00:54;;;;;;;22.47;3.03;;;;;;;20.32;64.30;101694.69;5032464;28;20440;-89
2022/05/26 08:03:22;;;;;;;4.90;2.00;;;;;;;20.44;63.64;101700.28;5033689;28;20498;-88
2022/05/26 08:05:51;;;;;;;8.43;2.00;;;;;;;20.54;62.67;101695.03;5014185;28;20485;-88
2022/05/26 08:08:33;;;;;;;7.30;1.83;;;;;;;20.73;62.35;101706.09;5082335;28;20455;-88
2022/05/26 08:11:01;;;;;;;16.80;2.77;;;;;;;20.79;61.64;101713.44;5039660;28;20500;-88
2022/05/26 08:13:29;;;;;;;13.33;4.33;;;;;;;20.82;61.40;101696.28;5013186;28;20442;-88
2022/05/26 08:15:57;;;;;;;52.30;38.50;;;;;;;20.86;61.10;101703.94;5048374;28;20471;-88
2022/05/26 08:18:27;;;;;;;12.70;5.70;;;;;;;20.99;60.34;101708.41;5052079;28;20439;-89
2022/05/26 08:21:04;;;;;;;16.30;6.37;;;;;;;21.00;59.50;101698.97;5052115;28;20954;-88
2022/05/26 08:23:32;;;;;;;19.33;5.00;;;;;;;21.15;59.29;101702.16;5081159;28;20439;-88
2022/05/26 08:26:01;;;;;;;13.93;4.80;;;;;;;21.24;59.00;101700.75;5043356;28;20542;-88
2022/05/26 08:28:28;;;;;;;11.50;3.67;;;;;;;21.31;58.19;101707.03;5037418;28;20442;-88
2022/05/26 08:30:56;;;;;;;10.00;3.10;;;;;;;21.31;57.35;101701.47;5021272;28;20490;-88
2022/05/26 08:33:28;;;;;;;8.50;2.60;;;;;;;21.34;57.22;101701.00;5041380;28;20514;-88
2022/05/26 08:36:17;;;;;;;10.80;2.03;;;;;;;21.51;57.03;101717.81;5035754;28;20488;-89
2022/05/26 08:38:48;;;;;;;6.07;1.80;;;;;;;21.60;57.18;101721.03;5038856;28;20870;-89
2022/05/26 08:41:25;;;;;;;8.03;2.40;;;;;;;21.67;57.00;101716.22;5066264;28;20459;-89
2022/05/26 08:44:22;;;;;;;10.20;3.60;;;;;;;21.83;57.13;101721.03;5051331;28;20937;-89
2022/05/26 08:46:54;;;;;;;116.57;38.27;;;;;;;21.88;56.99;101718.34;5048347;28;20545;-89
2022/05/26 08:49:29;;;;;;;6.70;2.83;;;;;;;22.00;57.25;101726.72;5016815;28;20446;-89
2022/05/26 08:52:00;;;;;;;7.20;1.50;;;;;;;22.02;57.45;101714.25;5055205;28;20482;-88
2022/05/26 08:55:03;;;;;;;12.33;2.03;;;;;;;22.18;56.84;101720.97;5034971;28;20445;-89
2022/05/26 08:57:46;;;;;;;13.97;2.60;;;;;;;22.27;56.68;101724.22;5068859;28;20453;-88
2022/05/26 09:00:18;;;;;;;9.57;1.80;;;;;;;22.30;56.02;101720.94;5057668;28;20458;-88
2022/05/26 09:02:45;;;;;;;9.50;1.47;;;;;;;22.47;55.15;101727.41;5044399;28;20451;-88
2022/05/26 09:05:15;;;;;;;8.30;1.20;;;;;;;22.46;54.18;101725.72;5051108;28;20442;-89
2022/05/26 09:13:47;;;;;;;8.03;1.43;;;;;;;22.84;52.56;101727.00;5070481;28;20437;-89
2022/05/26 09:16:15;;;;;;;30.77;15.93;;;;;;;22.92;51.75;101723.78;5033984;28;20451;-88
2022/05/26 09:18:45;;;;;;;3.33;1.33;;;;;;;23.09;51.75;101724.69;5068020;28;20456;-88
2022/05/26 09:21:23;;;;;;;4.37;1.17;;;;;;;23.25;50.89;101731.34;5051527;28;20466;-88
2022/05/26 09:23:51;;;;;;;5.03;1.27;;;;;;;23.31;49.11;101739.53;5047693;28;20765;-91
2022/05/26 09:26:25;;;;;;;8.43;1.17;;;;;;;23.42;48.41;101726.59;5063232;28;20530;-88
2022/05/26 09:28:54;;;;;;;5.63;1.17;;;;;;;23.58;47.92;101733.28;5035057;28;20497;-88
2022/05/26 09:31:22;;;;;;;4.97;1.30;;;;;;;23.68;48.40;101744.59;5015584;28;20443;-88
2022/05/26 09:34:07;;;;;;;7.27;1.70;;;;;;;23.76;48.02;101724.63;5048399;28;20506;-89
2022/05/26 09:36:44;;;;;;;4.90;1.40;;;;;;;23.85;47.56;101733.41;5051204;28;20786;-89
2022/05/26 09:39:13;;;;;;;1.93;0.70;;;;;;;23.77;47.53;101723.50;5029692;28;20521;-88
2022/05/26 09:41:46;;;;;;;6.70;1.10;;;;;;;23.86;47.18;101713.56;5012596;28;20541;-89
2022/05/26 09:44:28;;;;;;;9.13;1.03;;;;;;;24.10;47.05;101733.72;5037987;28;20439;-89
2022/05/26 09:47:25;;;;;;;3.53;1.00;;;;;;;24.22;45.86;101730.81;5019031;28;20480;-88
2022/05/26 09:49:55;;;;;;;7.60;1.73;;;;;;;24.29;46.65;101714.72;5026744;28;20522;-88
2022/05/26 09:52:29;;;;;;;12.63;1.00;;;;;;;24.52;47.01;101724.75;5047315;28;20475;-89
2022/05/26 09:55:10;;;;;;;6.17;1.33;;;;;;;24.78;45.77;101744.34;5050361;28;20469;-89
2022/05/26 09:57:40;;;;;;;14.53;2.07;;;;;;;24.68;44.40;101732.19;5044107;28;20439;-90
2022/05/26 10:00:21;;;;;;;3.50;0.83;;;;;;;24.73;43.22;101740.66;5067699;28;20474;-88
2022/05/26 10:02:51;;;;;;;12.00;2.30;;;;;;;24.68;42.96;101732.19;5069483;28;20454;-89
2022/05/26 10:05:51;;;;;;;14.63;1.30;;;;;;;24.82;42.75;101727.88;5089958;28;20466;-89
2022/05/26 10:09:00;;;;;;;4.37;1.13;;;;;;;25.02;42.74;101744.03;5080745;28;20496;-89
2022/05/26 10:11:57;;;;;;;4.50;1.27;;;;;;;25.23;42.66;101745.88;5052134;28;20446;-89
2022/05/26 10:15:09;;;;;;;7.03;1.40;;;;;;;25.42;42.34;101747.16;5047561;28;20525;-90
2022/05/26 10:18:14;;;;;;;5.30;0.93;;;;;;;25.60;41.90;101748.69;5049475;28;20443;-89
2022/05/26 10:20:59;;;;;;;8.73;1.37;;;;;;;25.74;41.07;101746.31;5045793;28;21040;-89
2022/05/26 10:23:39;;;;;;;5.93;1.00;;;;;;;25.81;40.77;101735.69;5049704;28;20462;-89
2022/05/26 10:26:49;;;;;;;1.97;0.90;;;;;;;25.96;41.01;101734.94;5019090;28;20465;-89
2022/05/26 10:30:14;;;;;;;9.07;0.80;;;;;;;26.13;40.59;101739.22;5037062;28;20446;-89
2022/05/26 10:32:53;;;;;;;5.20;0.87;;;;;;;26.27;40.79;101733.13;5043580;28;20483;-89
2022/05/26 10:35:40;;;;;;;14.10;1.90;;;;;;;26.43;40.75;101726.47;5034845;28;20442;-89
2022/05/26 10:38:34;;;;;;;3.10;1.30;;;;;;;26.57;40.31;101733.22;5030124;28;20477;-89
2022/05/26 10:41:26;;;;;;;4.47;1.00;;;;;;;26.70;40.29;101731.88;5045314;28;20462;-90
2022/05/26 10:44:05;;;;;;;6.30;1.50;;;;;;;26.74;40.19;101728.25;5048696;28;20440;-89
2022/05/26 10:46:35;;;;;;;3.43;0.70;;;;;;;26.84;40.41;101733.84;5036111;28;20453;-88
2022/05/26 10:49:32;;;;;;;3.37;1.50;;;;;;;27.04;40.46;101740.63;5036470;28;20917;-89
2022/05/26 10:52:12;;;;;;;6.23;0.87;;;;;;;27.09;40.14;101732.22;5028018;28;20870;-89
2022/05/26 10:54:51;;;;;;;2.97;0.93;;;;;;;27.13;40.22;101733.38;5062168;28;20541;-89
2022/05/26 10:57:56;;;;;;;2.97;0.90;;;;;;;27.24;39.96;101729.41;5050997;28;20453;-88
2022/05/26 11:00:29;;;;;;;6.20;0.70;;;;;;;27.26;39.02;101718.75;5045621;28;20767;-89
2022/05/26 11:03:24;;;;;;;3.60;0.70;;;;;;;27.32;38.45;101706.41;5063782;28;20446;-89
2022/05/26 11:06:03;;;;;;;7.23;1.50;;;;;;;27.41;38.13;101720.69;5057053;28;20470;-89
2022/05/26 11:08:41;;;;;;;5.40;1.20;;;;;;;27.58;38.37;101728.84;5016366;28;20486;-89
2022/05/26 11:11:51;;;;;;;12.10;1.37;;;;;;;27.59;37.26;101711.69;5069944;28;20438;-89
2022/05/26 11:18:10;;;;;;;8.83;1.40;;;;;;;27.85;36.60;101720.91;5049499;28;20445;-89
2022/05/26 11:20:53;;;;;;;6.80;1.03;;;;;;;27.90;37.03;101723.72;5050810;28;20458;-89
2022/05/26 11:23:31;;;;;;;10.13;1.10;;;;;;;27.96;36.49;101722.56;5033976;28;20509;-90
2022/05/26 11:26:19;;;;;;;6.93;0.80;;;;;;;28.05;36.52;101732.09;5033416;28;20513;-89
2022/05/26 11:28:52;;;;;;;5.50;0.70;;;;;;;28.12;36.05;101717.72;5049417;28;20447;-89
2022/05/26 11:37:30;;;;;;;7.20;1.10;;;;;;;28.36;36.54;101712.28;5068900;28;20955;-89
2022/05/26 11:40:00;;;;;;;3.60;0.97;;;;;;;28.35;35.56;101705.81;5059460;28;20449;-89
2022/05/26 11:42:55;;;;;;;3.57;1.13;;;;;;;28.43;35.45;101702.41;5031878;28;20513;-89
2022/05/26 11:45:32;;;;;;;5.57;0.93;;;;;;;28.47;35.22;101706.34;5023864;28;20596;-89
2022/05/26 11:48:04;;;;;;;2.77;0.77;;;;;;;28.60;34.41;101707.66;5047419;28;20469;-89
2022/05/26 11:51:02;;;;;;;6.80;0.83;;;;;;;28.63;34.12;101704.25;5036175;28;20447;-89
2022/05/26 11:53:37;;;;;;;3.37;0.97;;;;;;;28.66;34.22;101692.44;5059052;28;20578;-89
2022/05/26 11:56:28;;;;;;;2.50;0.77;;;;;;;28.76;34.33;101712.03;5066232;28;20453;-88
2022/05/26 11:59:19;;;;;;;3.47;0.90;;;;;;;28.82;34.29;101708.09;5055838;28;20828;-90
2022/05/26 12:01:58;;;;;;;13.30;1.60;;;;;;;28.84;34.21;101691.75;5034321;28;20458;-89
2022/05/26 12:04:32;;;;;;;2.80;0.80;;;;;;;28.90;34.32;101698.16;5049432;28;20453;-88
2022/05/26 12:07:22;;;;;;;7.13;0.90;;;;;;;28.96;34.91;101690.53;5016130;28;20458;-88
2022/05/26 12:10:21;;;;;;;9.03;0.63;;;;;;;28.99;35.70;101687.13;5039296;28;20559;-87
2022/05/26 12:13:11;;;;;;;6.03;1.00;;;;;;;29.05;35.64;101689.63;5048629;28;20920;-87
2022/05/26 12:15:39;;;;;;;15.70;1.23;;;;;;;29.07;34.87;101692.13;5067897;28;20548;-87
2022/05/26 12:18:18;;;;;;;3.07;0.93;;;;;;;29.08;35.72;101694.63;5047165;28;20474;-87
2022/05/26 12:20:48;;;;;;;6.00;1.13;;;;;;;29.13;36.22;101683.34;5046279;28;20505;-87
2022/05/26 12:23:22;;;;;;;11.90;1.67;;;;;;;29.25;37.18;101694.19;5031946;28;20482;-87
2022/05/26 12:26:28;;;;;;;8.27;1.60;;;;;;;29.26;38.05;101689.41;5067263;28;20549;-87
2022/05/26 12:29:35;;;;;;;3.90;1.10;;;;;;;29.28;38.99;101690.78;5050383;28;20446;-86
2022/05/26 12:32:13;;;;;;;5.40;1.00;;;;;;;29.29;37.92;101695.28;5040379;28;20458;-86
2022/05/26 12:34:55;;;;;;;5.63;1.57;;;;;;;29.32;38.14;101682.59;5031636;28;20435;-86
2022/05/26 12:38:02;;;;;;;3.83;1.20;;;;;;;29.30;37.94;101691.34;5031127;28;20942;-87
2022/05/26 12:40:50;;;;;;;3.90;1.10;;;;;;;29.40;38.20;101680.00;5031629;28;20479;-87
2022/05/26 12:43:39;;;;;;;6.00;1.30;;;;;;;29.42;37.84;101676.91;5031864;28;20479;-86
2022/05/26 12:46:16;;;;;;;7.00;1.43;;;;;;;29.43;38.43;101684.22;5018365;28;20906;-87
2022/05/26 12:49:01;;;;;;;7.40;1.27;;;;;;;29.45;39.07;101679.09;5032307;28;20865;-86